sensor_id;sensor_type;location;lat;lon;timestamp;P1;durP1;ratioP1;P2;durP2;ratioP2
38629;SDS011;24384;51.988;4.644;2024-01-07T00:00:48;11.63;;;8.23;;
38629;SDS011;24384;51.988;4.644;2024-01-07T00:03:15;10.40;;;7.57;;
38629;SDS011;24384;51.988;4.644;2024-01-07T00:05:41;10.70;;;7.30;;
38629;SDS011;24384;51.988;4.644;2024-01-07T00:08:06;10.30;;;8.02;;
38629;SDS011;24384;51.988;4.644;2024-01-07T00:10:34;10.13;;;7.05;;
38629;SDS011;24384;51.988;4.644;2024-01-07T00:12:59;11.63;;;7.53;;
38629;SDS011;24384;51.988;4.644;2024-01-07T00:15:26;9.68;;;6.72;;
38629;SDS011;24384;51.988;4.644;2024-01-07T00:17:51;11.27;;;8.18;;
38629;SDS011;24384;51.988;4.644;2024-01-07T00:20:17;10.73;;;7.35;;
38629;SDS011;24384;51.988;4.644;2024-01-07T00:22:42;11.48;;;7.80;;
38629;SDS011;24384;51.988;4.644;2024-01-07T00:25:07;10.77;;;7.28;;
38629;SDS011;24384;51.988;4.644;2024-01-07T00:27:33;11.38;;;7.82;;
38629;SDS011;24384;51.988;4.644;2024-01-07T00:29:58;13.55;;;8.63;;
38629;SDS011;24384;51.988;4.644;2024-01-07T00:32:23;9.77;;;7.78;;
38629;SDS011;24384;51.988;4.644;2024-01-07T00:34:52;10.27;;;7.57;;
38629;SDS011;24384;51.988;4.644;2024-01-07T00:37:18;11.90;;;8.23;;
38629;SDS011;24384;51.988;4.644;2024-01-07T00:39:43;10.65;;;8.20;;
38629;SDS011;24384;51.988;4.644;2024-01-07T00:42:10;10.52;;;7.82;;
38629;SDS011;24384;51.988;4.644;2024-01-07T00:44:36;11.73;;;8.70;;
38629;SDS011;24384;51.988;4.644;2024-01-07T00:47:02;10.07;;;7.63;;
38629;SDS011;24384;51.988;4.644;2024-01-07T00:49:28;12.30;;;8.27;;
38629;SDS011;24384;51.988;4.644;2024-01-07T00:51:54;10.00;;;7.15;;
38629;SDS011;24384;51.988;4.644;2024-01-07T00:54:20;11.95;;;8.18;;
38629;SDS011;24384;51.988;4.644;2024-01-07T00:56:45;11.63;;;8.25;;
38629;SDS011;24384;51.988;4.644;2024-01-07T00:59:10;12.02;;;7.97;;
38629;SDS011;24384;51.988;4.644;2024-01-07T01:01:36;10.80;;;8.20;;
38629;SDS011;24384;51.988;4.644;2024-01-07T01:04:01;10.20;;;7.32;;
38629;SDS011;24384;51.988;4.644;2024-01-07T01:06:26;10.13;;;7.90;;
38629;SDS011;24384;51.988;4.644;2024-01-07T01:08:52;9.80;;;7.35;;
38629;SDS011;24384;51.988;4.644;2024-01-07T01:11:17;10.30;;;7.35;;
38629;SDS011;24384;51.988;4.644;2024-01-07T01:13:42;13.10;;;7.75;;
38629;SDS011;24384;51.988;4.644;2024-01-07T01:16:09;9.90;;;7.38;;
38629;SDS011;24384;51.988;4.644;2024-01-07T01:18:35;9.95;;;7.53;;
38629;SDS011;24384;51.988;4.644;2024-01-07T01:21:00;11.43;;;7.75;;
38629;SDS011;24384;51.988;4.644;2024-01-07T01:23:25;10.80;;;7.75;;
38629;SDS011;24384;51.988;4.644;2024-01-07T01:25:51;9.63;;;7.05;;
38629;SDS011;24384;51.988;4.644;2024-01-07T01:28:16;9.75;;;7.40;;
38629;SDS011;24384;51.988;4.644;2024-01-07T01:30:41;11.88;;;7.57;;
38629;SDS011;24384;51.988;4.644;2024-01-07T01:33:06;8.55;;;7.53;;
38629;SDS011;24384;51.988;4.644;2024-01-07T01:35:32;9.25;;;7.32;;
38629;SDS011;24384;51.988;4.644;2024-01-07T01:37:59;10.68;;;7.32;;
38629;SDS011;24384;51.988;4.644;2024-01-07T01:40:25;10.27;;;7.60;;
38629;SDS011;24384;51.988;4.644;2024-01-07T01:42:50;10.80;;;8.15;;
38629;SDS011;24384;51.988;4.644;2024-01-07T01:45:15;11.60;;;8.55;;
38629;SDS011;24384;51.988;4.644;2024-01-07T01:47:43;10.55;;;8.23;;
38629;SDS011;24384;51.988;4.644;2024-01-07T01:50:12;10.18;;;8.25;;
38629;SDS011;24384;51.988;4.644;2024-01-07T01:52:37;13.70;;;8.70;;
38629;SDS011;24384;51.988;4.644;2024-01-07T01:55:03;11.82;;;8.48;;
38629;SDS011;24384;51.988;4.644;2024-01-07T01:57:32;11.25;;;8.20;;
38629;SDS011;24384;51.988;4.644;2024-01-07T01:59:59;12.10;;;9.27;;
38629;SDS011;24384;51.988;4.644;2024-01-07T02:02:29;12.75;;;9.23;;
38629;SDS011;24384;51.988;4.644;2024-01-07T02:04:56;13.20;;;9.32;;
38629;SDS011;24384;51.988;4.644;2024-01-07T02:07:24;13.00;;;8.95;;
38629;SDS011;24384;51.988;4.644;2024-01-07T02:09:54;14.77;;;10.18;;
38629;SDS011;24384;51.988;4.644;2024-01-07T02:12:19;13.07;;;9.40;;
38629;SDS011;24384;51.988;4.644;2024-01-07T02:14:45;11.70;;;8.93;;
38629;SDS011;24384;51.988;4.644;2024-01-07T02:17:10;14.02;;;9.50;;
38629;SDS011;24384;51.988;4.644;2024-01-07T02:19:35;14.88;;;9.48;;
38629;SDS011;24384;51.988;4.644;2024-01-07T02:22:01;10.15;;;7.68;;
38629;SDS011;24384;51.988;4.644;2024-01-07T02:24:26;9.60;;;7.18;;
38629;SDS011;24384;51.988;4.644;2024-01-07T02:26:51;10.57;;;7.68;;
38629;SDS011;24384;51.988;4.644;2024-01-07T02:29:17;14.57;;;9.40;;
38629;SDS011;24384;51.988;4.644;2024-01-07T02:31:42;10.63;;;8.27;;
38629;SDS011;24384;51.988;4.644;2024-01-07T02:34:10;10.65;;;7.53;;
38629;SDS011;24384;51.988;4.644;2024-01-07T02:36:36;8.20;;;6.43;;
38629;SDS011;24384;51.988;4.644;2024-01-07T02:39:01;12.60;;;8.48;;
38629;SDS011;24384;51.988;4.644;2024-01-07T02:41:27;11.20;;;7.85;;
38629;SDS011;24384;51.988;4.644;2024-01-07T02:43:52;11.32;;;8.25;;
38629;SDS011;24384;51.988;4.644;2024-01-07T02:46:19;12.27;;;8.85;;
38629;SDS011;24384;51.988;4.644;2024-01-07T02:48:44;9.98;;;7.35;;
38629;SDS011;24384;51.988;4.644;2024-01-07T02:51:10;10.65;;;7.82;;
38629;SDS011;24384;51.988;4.644;2024-01-07T02:53:35;12.15;;;8.40;;
38629;SDS011;24384;51.988;4.644;2024-01-07T02:56:00;11.57;;;8.15;;
38629;SDS011;24384;51.988;4.644;2024-01-07T02:58:26;10.50;;;7.57;;
38629;SDS011;24384;51.988;4.644;2024-01-07T03:00:51;12.05;;;8.05;;
38629;SDS011;24384;51.988;4.644;2024-01-07T03:03:16;11.98;;;8.25;;
38629;SDS011;24384;51.988;4.644;2024-01-07T03:05:42;13.43;;;8.57;;
38629;SDS011;24384;51.988;4.644;2024-01-07T03:08:07;11.60;;;7.90;;
38629;SDS011;24384;51.988;4.644;2024-01-07T03:10:33;11.05;;;8.05;;
38629;SDS011;24384;51.988;4.644;2024-01-07T03:12:59;14.93;;;9.05;;
38629;SDS011;24384;51.988;4.644;2024-01-07T03:15:27;12.95;;;9.43;;
38629;SDS011;24384;51.988;4.644;2024-01-07T03:17:53;13.88;;;9.35;;
38629;SDS011;24384;51.988;4.644;2024-01-07T03:20:18;12.93;;;9.30;;
38629;SDS011;24384;51.988;4.644;2024-01-07T03:22:43;14.68;;;9.25;;
38629;SDS011;24384;51.988;4.644;2024-01-07T03:25:09;14.68;;;9.27;;
38629;SDS011;24384;51.988;4.644;2024-01-07T03:27:34;15.55;;;9.95;;
38629;SDS011;24384;51.988;4.644;2024-01-07T03:30:00;13.50;;;9.18;;
38629;SDS011;24384;51.988;4.644;2024-01-07T03:32:27;12.20;;;9.48;;
38629;SDS011;24384;51.988;4.644;2024-01-07T03:34:53;16.30;;;10.10;;
38629;SDS011;24384;51.988;4.644;2024-01-07T03:37:21;13.45;;;9.93;;
38629;SDS011;24384;51.988;4.644;2024-01-07T03:39:47;13.65;;;9.63;;
38629;SDS011;24384;51.988;4.644;2024-01-07T03:42:13;14.88;;;10.00;;
38629;SDS011;24384;51.988;4.644;2024-01-07T03:44:38;15.52;;;10.82;;
38629;SDS011;24384;51.988;4.644;2024-01-07T03:47:04;16.00;;;10.40;;
38629;SDS011;24384;51.988;4.644;2024-01-07T03:49:31;16.02;;;10.88;;
38629;SDS011;24384;51.988;4.644;2024-01-07T03:51:56;17.77;;;11.30;;
38629;SDS011;24384;51.988;4.644;2024-01-07T03:54:21;17.20;;;11.82;;
38629;SDS011;24384;51.988;4.644;2024-01-07T03:56:47;20.85;;;12.93;;
38629;SDS011;24384;51.988;4.644;2024-01-07T03:59:22;20.13;;;12.00;;
38629;SDS011;24384;51.988;4.644;2024-01-07T04:02:00;22.33;;;12.70;;
38629;SDS011;24384;51.988;4.644;2024-01-07T04:04:29;19.83;;;12.07;;
38629;SDS011;24384;51.988;4.644;2024-01-07T04:07:04;22.00;;;13.85;;
38629;SDS011;24384;51.988;4.644;2024-01-07T04:09:43;17.13;;;12.38;;
38629;SDS011;24384;51.988;4.644;2024-01-07T04:12:14;18.77;;;11.25;;
38629;SDS011;24384;51.988;4.644;2024-01-07T04:14:42;20.45;;;13.07;;
38629;SDS011;24384;51.988;4.644;2024-01-07T04:17:08;16.15;;;11.10;;
38629;SDS011;24384;51.988;4.644;2024-01-07T04:19:38;16.88;;;12.23;;
38629;SDS011;24384;51.988;4.644;2024-01-07T04:22:03;19.90;;;11.88;;
38629;SDS011;24384;51.988;4.644;2024-01-07T04:24:28;17.52;;;10.98;;
38629;SDS011;24384;51.988;4.644;2024-01-07T04:26:55;17.40;;;11.52;;
38629;SDS011;24384;51.988;4.644;2024-01-07T04:29:20;18.92;;;11.50;;
38629;SDS011;24384;51.988;4.644;2024-01-07T04:31:46;16.42;;;10.52;;
38629;SDS011;24384;51.988;4.644;2024-01-07T04:34:11;17.40;;;11.75;;
38629;SDS011;24384;51.988;4.644;2024-01-07T04:36:36;16.38;;;11.30;;
38629;SDS011;24384;51.988;4.644;2024-01-07T04:39:02;18.48;;;11.93;;
38629;SDS011;24384;51.988;4.644;2024-01-07T04:41:27;19.10;;;11.43;;
38629;SDS011;24384;51.988;4.644;2024-01-07T04:43:52;15.13;;;10.13;;
38629;SDS011;24384;51.988;4.644;2024-01-07T04:46:17;16.17;;;11.38;;
38629;SDS011;24384;51.988;4.644;2024-01-07T04:48:43;15.82;;;10.23;;
38629;SDS011;24384;51.988;4.644;2024-01-07T04:51:08;16.15;;;10.68;;
38629;SDS011;24384;51.988;4.644;2024-01-07T04:53:33;19.45;;;11.02;;
38629;SDS011;24384;51.988;4.644;2024-01-07T04:55:59;18.77;;;11.68;;
38629;SDS011;24384;51.988;4.644;2024-01-07T04:58:27;16.30;;;10.90;;
38629;SDS011;24384;51.988;4.644;2024-01-07T05:00:52;15.15;;;10.32;;
38629;SDS011;24384;51.988;4.644;2024-01-07T05:03:17;16.45;;;10.27;;
38629;SDS011;24384;51.988;4.644;2024-01-07T05:05:43;16.30;;;10.80;;
38629;SDS011;24384;51.988;4.644;2024-01-07T05:08:08;16.55;;;10.48;;
38629;SDS011;24384;51.988;4.644;2024-01-07T05:10:33;16.55;;;10.85;;
38629;SDS011;24384;51.988;4.644;2024-01-07T05:12:58;14.88;;;9.77;;
38629;SDS011;24384;51.988;4.644;2024-01-07T05:15:29;19.73;;;11.50;;
38629;SDS011;24384;51.988;4.644;2024-01-07T05:17:55;16.10;;;10.32;;
38629;SDS011;24384;51.988;4.644;2024-01-07T05:20:20;15.82;;;9.85;;
38629;SDS011;24384;51.988;4.644;2024-01-07T05:22:45;14.68;;;10.43;;
38629;SDS011;24384;51.988;4.644;2024-01-07T05:25:11;17.80;;;11.27;;
38629;SDS011;24384;51.988;4.644;2024-01-07T05:27:36;17.00;;;11.20;;
38629;SDS011;24384;51.988;4.644;2024-01-07T05:30:01;16.60;;;11.02;;
38629;SDS011;24384;51.988;4.644;2024-01-07T05:32:27;19.15;;;13.25;;
38629;SDS011;24384;51.988;4.644;2024-01-07T05:34:54;20.88;;;12.63;;
38629;SDS011;24384;51.988;4.644;2024-01-07T05:37:19;21.77;;;13.70;;
38629;SDS011;24384;51.988;4.644;2024-01-07T05:39:45;21.92;;;13.35;;
38629;SDS011;24384;51.988;4.644;2024-01-07T05:42:12;19.70;;;12.75;;
38629;SDS011;24384;51.988;4.644;2024-01-07T05:44:38;21.67;;;13.00;;
38629;SDS011;24384;51.988;4.644;2024-01-07T05:47:05;20.38;;;13.05;;
38629;SDS011;24384;51.988;4.644;2024-01-07T05:49:30;21.70;;;12.57;;
38629;SDS011;24384;51.988;4.644;2024-01-07T05:51:56;24.80;;;13.48;;
38629;SDS011;24384;51.988;4.644;2024-01-07T05:54:21;20.52;;;12.90;;
38629;SDS011;24384;51.988;4.644;2024-01-07T05:56:47;21.52;;;14.25;;
38629;SDS011;24384;51.988;4.644;2024-01-07T05:59:13;22.42;;;14.20;;
38629;SDS011;24384;51.988;4.644;2024-01-07T06:01:38;18.45;;;13.43;;
38629;SDS011;24384;51.988;4.644;2024-01-07T06:04:05;17.95;;;12.25;;
38629;SDS011;24384;51.988;4.644;2024-01-07T06:06:31;20.30;;;12.07;;
38629;SDS011;24384;51.988;4.644;2024-01-07T06:08:57;18.13;;;11.77;;
38629;SDS011;24384;51.988;4.644;2024-01-07T06:11:22;17.15;;;11.65;;
38629;SDS011;24384;51.988;4.644;2024-01-07T06:13:50;20.38;;;13.18;;
38629;SDS011;24384;51.988;4.644;2024-01-07T06:16:15;18.30;;;12.23;;
38629;SDS011;24384;51.988;4.644;2024-01-07T06:18:40;18.80;;;12.68;;
38629;SDS011;24384;51.988;4.644;2024-01-07T06:21:05;20.42;;;12.25;;
38629;SDS011;24384;51.988;4.644;2024-01-07T06:23:34;19.70;;;13.07;;
38629;SDS011;24384;51.988;4.644;2024-01-07T06:26:05;16.75;;;12.18;;
38629;SDS011;24384;51.988;4.644;2024-01-07T06:28:31;19.95;;;11.30;;
38629;SDS011;24384;51.988;4.644;2024-01-07T06:31:02;18.33;;;12.32;;
38629;SDS011;24384;51.988;4.644;2024-01-07T06:33:30;19.45;;;12.43;;
38629;SDS011;24384;51.988;4.644;2024-01-07T06:35:56;20.27;;;13.48;;
38629;SDS011;24384;51.988;4.644;2024-01-07T06:38:21;23.38;;;13.68;;
38629;SDS011;24384;51.988;4.644;2024-01-07T06:40:46;21.92;;;14.73;;
38629;SDS011;24384;51.988;4.644;2024-01-07T06:43:11;21.20;;;13.10;;
38629;SDS011;24384;51.988;4.644;2024-01-07T06:45:37;20.17;;;12.52;;
38629;SDS011;24384;51.988;4.644;2024-01-07T06:48:02;20.52;;;12.98;;
38629;SDS011;24384;51.988;4.644;2024-01-07T06:50:28;18.27;;;12.82;;
38629;SDS011;24384;51.988;4.644;2024-01-07T06:52:53;22.88;;;12.98;;
38629;SDS011;24384;51.988;4.644;2024-01-07T06:55:18;21.50;;;12.23;;
38629;SDS011;24384;51.988;4.644;2024-01-07T06:57:46;19.05;;;12.93;;
38629;SDS011;24384;51.988;4.644;2024-01-07T07:00:12;23.92;;;14.52;;
38629;SDS011;24384;51.988;4.644;2024-01-07T07:02:38;18.15;;;11.20;;
38629;SDS011;24384;51.988;4.644;2024-01-07T07:05:05;19.17;;;11.50;;
38629;SDS011;24384;51.988;4.644;2024-01-07T07:07:33;23.77;;;13.35;;
38629;SDS011;24384;51.988;4.644;2024-01-07T07:10:01;20.27;;;12.52;;
38629;SDS011;24384;51.988;4.644;2024-01-07T07:12:27;19.65;;;12.25;;
38629;SDS011;24384;51.988;4.644;2024-01-07T07:14:55;16.42;;;11.00;;
38629;SDS011;24384;51.988;4.644;2024-01-07T07:17:20;18.10;;;11.68;;
38629;SDS011;24384;51.988;4.644;2024-01-07T07:19:45;12.55;;;9.43;;
38629;SDS011;24384;51.988;4.644;2024-01-07T07:22:11;15.60;;;10.60;;
38629;SDS011;24384;51.988;4.644;2024-01-07T07:24:40;17.45;;;11.85;;
38629;SDS011;24384;51.988;4.644;2024-01-07T07:27:06;13.77;;;10.45;;
38629;SDS011;24384;51.988;4.644;2024-01-07T07:29:31;19.55;;;11.90;;
38629;SDS011;24384;51.988;4.644;2024-01-07T07:31:57;16.13;;;10.73;;
38629;SDS011;24384;51.988;4.644;2024-01-07T07:34:22;16.05;;;10.63;;
38629;SDS011;24384;51.988;4.644;2024-01-07T07:36:47;18.02;;;11.10;;
38629;SDS011;24384;51.988;4.644;2024-01-07T07:39:12;19.38;;;11.75;;
38629;SDS011;24384;51.988;4.644;2024-01-07T07:41:39;16.95;;;11.20;;
38629;SDS011;24384;51.988;4.644;2024-01-07T07:44:04;18.05;;;11.23;;
38629;SDS011;24384;51.988;4.644;2024-01-07T07:46:29;18.27;;;11.75;;
38629;SDS011;24384;51.988;4.644;2024-01-07T07:48:55;18.50;;;10.70;;
38629;SDS011;24384;51.988;4.644;2024-01-07T07:51:20;17.10;;;11.30;;
38629;SDS011;24384;51.988;4.644;2024-01-07T07:53:45;15.50;;;9.93;;
38629;SDS011;24384;51.988;4.644;2024-01-07T07:56:11;20.23;;;12.38;;
38629;SDS011;24384;51.988;4.644;2024-01-07T07:58:36;17.35;;;10.93;;
38629;SDS011;24384;51.988;4.644;2024-01-07T08:01:01;14.88;;;10.57;;
38629;SDS011;24384;51.988;4.644;2024-01-07T08:03:29;18.05;;;10.70;;
38629;SDS011;24384;51.988;4.644;2024-01-07T08:05:55;20.48;;;11.20;;
38629;SDS011;24384;51.988;4.644;2024-01-07T08:08:21;20.60;;;12.13;;
38629;SDS011;24384;51.988;4.644;2024-01-07T08:10:46;19.88;;;12.48;;
38629;SDS011;24384;51.988;4.644;2024-01-07T08:13:11;21.60;;;12.13;;
38629;SDS011;24384;51.988;4.644;2024-01-07T08:15:37;19.75;;;12.07;;
38629;SDS011;24384;51.988;4.644;2024-01-07T08:18:02;16.77;;;11.75;;
38629;SDS011;24384;51.988;4.644;2024-01-07T08:20:28;17.02;;;10.32;;
38629;SDS011;24384;51.988;4.644;2024-01-07T08:22:55;16.00;;;10.07;;
38629;SDS011;24384;51.988;4.644;2024-01-07T08:25:20;14.82;;;10.05;;
38629;SDS011;24384;51.988;4.644;2024-01-07T08:27:45;16.17;;;10.00;;
38629;SDS011;24384;51.988;4.644;2024-01-07T08:30:12;13.65;;;9.85;;
38629;SDS011;24384;51.988;4.644;2024-01-07T08:32:38;14.13;;;10.05;;
38629;SDS011;24384;51.988;4.644;2024-01-07T08:35:04;14.00;;;9.02;;
38629;SDS011;24384;51.988;4.644;2024-01-07T08:37:30;18.48;;;10.18;;
38629;SDS011;24384;51.988;4.644;2024-01-07T08:39:55;12.45;;;8.75;;
38629;SDS011;24384;51.988;4.644;2024-01-07T08:42:26;16.00;;;11.02;;
38629;SDS011;24384;51.988;4.644;2024-01-07T08:44:52;16.60;;;9.32;;
38629;SDS011;24384;51.988;4.644;2024-01-07T08:47:17;15.77;;;9.80;;
38629;SDS011;24384;51.988;4.644;2024-01-07T08:49:42;12.98;;;9.32;;
38629;SDS011;24384;51.988;4.644;2024-01-07T08:52:08;13.68;;;8.85;;
38629;SDS011;24384;51.988;4.644;2024-01-07T08:54:33;17.65;;;8.57;;
38629;SDS011;24384;51.988;4.644;2024-01-07T08:56:59;14.77;;;8.95;;
38629;SDS011;24384;51.988;4.644;2024-01-07T08:59:24;18.88;;;9.52;;
38629;SDS011;24384;51.988;4.644;2024-01-07T09:01:49;16.02;;;8.93;;
38629;SDS011;24384;51.988;4.644;2024-01-07T09:04:15;14.80;;;10.07;;
38629;SDS011;24384;51.988;4.644;2024-01-07T09:06:42;16.02;;;10.90;;
38629;SDS011;24384;51.988;4.644;2024-01-07T09:09:08;17.55;;;10.68;;
38629;SDS011;24384;51.988;4.644;2024-01-07T09:11:33;16.02;;;10.43;;
38629;SDS011;24384;51.988;4.644;2024-01-07T09:13:59;15.75;;;11.30;;
38629;SDS011;24384;51.988;4.644;2024-01-07T09:16:24;16.48;;;11.23;;
38629;SDS011;24384;51.988;4.644;2024-01-07T09:18:50;18.88;;;12.20;;
38629;SDS011;24384;51.988;4.644;2024-01-07T09:21:16;17.05;;;11.65;;
38629;SDS011;24384;51.988;4.644;2024-01-07T09:23:41;16.17;;;10.43;;
38629;SDS011;24384;51.988;4.644;2024-01-07T09:26:07;15.30;;;9.70;;
38629;SDS011;24384;51.988;4.644;2024-01-07T09:28:32;13.63;;;9.77;;
38629;SDS011;24384;51.988;4.644;2024-01-07T09:30:57;16.73;;;11.45;;
38629;SDS011;24384;51.988;4.644;2024-01-07T09:33:23;13.13;;;9.52;;
38629;SDS011;24384;51.988;4.644;2024-01-07T09:35:49;14.40;;;9.93;;
38629;SDS011;24384;51.988;4.644;2024-01-07T09:38:15;15.13;;;9.98;;
38629;SDS011;24384;51.988;4.644;2024-01-07T09:40:40;11.52;;;9.10;;
38629;SDS011;24384;51.988;4.644;2024-01-07T09:43:06;13.13;;;8.88;;
38629;SDS011;24384;51.988;4.644;2024-01-07T09:45:31;12.98;;;9.73;;
38629;SDS011;24384;51.988;4.644;2024-01-07T09:47:57;12.30;;;9.40;;
38629;SDS011;24384;51.988;4.644;2024-01-07T09:50:23;15.57;;;9.40;;
38629;SDS011;24384;51.988;4.644;2024-01-07T09:52:48;13.50;;;9.82;;
38629;SDS011;24384;51.988;4.644;2024-01-07T09:55:20;11.77;;;7.97;;
38629;SDS011;24384;51.988;4.644;2024-01-07T09:57:51;12.98;;;9.73;;
38629;SDS011;24384;51.988;4.644;2024-01-07T10:00:19;13.63;;;8.93;;
38629;SDS011;24384;51.988;4.644;2024-01-07T10:02:46;14.27;;;8.80;;
38629;SDS011;24384;51.988;4.644;2024-01-07T10:05:11;13.52;;;8.73;;
38629;SDS011;24384;51.988;4.644;2024-01-07T10:07:37;11.73;;;8.95;;
38629;SDS011;24384;51.988;4.644;2024-01-07T10:10:15;13.30;;;9.77;;
38629;SDS011;24384;51.988;4.644;2024-01-07T10:12:43;19.17;;;10.07;;
38629;SDS011;24384;51.988;4.644;2024-01-07T10:15:10;13.73;;;8.98;;
38629;SDS011;24384;51.988;4.644;2024-01-07T10:17:35;12.35;;;9.32;;
38629;SDS011;24384;51.988;4.644;2024-01-07T10:20:01;14.80;;;9.52;;
38629;SDS011;24384;51.988;4.644;2024-01-07T10:22:26;12.50;;;8.73;;
38629;SDS011;24384;51.988;4.644;2024-01-07T10:24:52;12.55;;;8.75;;
38629;SDS011;24384;51.988;4.644;2024-01-07T10:27:17;14.82;;;8.20;;
38629;SDS011;24384;51.988;4.644;2024-01-07T10:29:42;12.75;;;8.93;;
38629;SDS011;24384;51.988;4.644;2024-01-07T10:32:08;12.75;;;8.82;;
38629;SDS011;24384;51.988;4.644;2024-01-07T10:34:34;15.30;;;8.30;;
38629;SDS011;24384;51.988;4.644;2024-01-07T10:37:02;12.18;;;8.15;;
38629;SDS011;24384;51.988;4.644;2024-01-07T10:39:29;12.05;;;8.48;;
38629;SDS011;24384;51.988;4.644;2024-01-07T10:41:55;10.10;;;7.40;;
38629;SDS011;24384;51.988;4.644;2024-01-07T10:44:29;11.73;;;7.85;;
38629;SDS011;24384;51.988;4.644;2024-01-07T10:46:55;10.95;;;7.10;;
38629;SDS011;24384;51.988;4.644;2024-01-07T10:49:22;15.40;;;6.95;;
38629;SDS011;24384;51.988;4.644;2024-01-07T10:52:09;13.82;;;7.28;;
38629;SDS011;24384;51.988;4.644;2024-01-07T10:54:36;9.60;;;6.22;;
38629;SDS011;24384;51.988;4.644;2024-01-07T10:57:13;12.98;;;7.05;;
38629;SDS011;24384;51.988;4.644;2024-01-07T11:00:02;9.38;;;6.93;;
38629;SDS011;24384;51.988;4.644;2024-01-07T11:02:35;12.00;;;6.75;;
38629;SDS011;24384;51.988;4.644;2024-01-07T11:05:14;10.30;;;6.43;;
38629;SDS011;24384;51.988;4.644;2024-01-07T11:07:47;13.00;;;7.22;;
38629;SDS011;24384;51.988;4.644;2024-01-07T11:10:38;9.93;;;5.65;;
38629;SDS011;24384;51.988;4.644;2024-01-07T11:13:08;12.60;;;6.03;;
38629;SDS011;24384;51.988;4.644;2024-01-07T11:18:18;9.10;;;5.63;;
38629;SDS011;24384;51.988;4.644;2024-01-07T11:20:44;13.18;;;6.10;;
38629;SDS011;24384;51.988;4.644;2024-01-07T11:25:52;9.45;;;6.10;;
38629;SDS011;24384;51.988;4.644;2024-01-07T11:28:17;8.52;;;5.88;;
38629;SDS011;24384;51.988;4.644;2024-01-07T11:30:45;8.05;;;5.35;;
38629;SDS011;24384;51.988;4.644;2024-01-07T11:33:13;5.65;;;4.15;;
38629;SDS011;24384;51.988;4.644;2024-01-07T11:35:57;7.22;;;5.15;;
38629;SDS011;24384;51.988;4.644;2024-01-07T11:38:26;10.65;;;4.90;;
38629;SDS011;24384;51.988;4.644;2024-01-07T11:40:51;10.25;;;5.07;;
38629;SDS011;24384;51.988;4.644;2024-01-07T11:43:17;7.50;;;3.83;;
38629;SDS011;24384;51.988;4.644;2024-01-07T11:45:45;6.20;;;3.88;;
38629;SDS011;24384;51.988;4.644;2024-01-07T11:48:10;4.80;;;3.05;;
38629;SDS011;24384;51.988;4.644;2024-01-07T11:50:36;4.47;;;3.00;;
38629;SDS011;24384;51.988;4.644;2024-01-07T11:53:01;4.32;;;2.63;;
38629;SDS011;24384;51.988;4.644;2024-01-07T11:55:27;4.32;;;2.88;;
38629;SDS011;24384;51.988;4.644;2024-01-07T11:57:55;4.38;;;2.80;;
38629;SDS011;24384;51.988;4.644;2024-01-07T12:00:21;3.78;;;2.92;;
38629;SDS011;24384;51.988;4.644;2024-01-07T12:02:46;3.22;;;2.40;;
38629;SDS011;24384;51.988;4.644;2024-01-07T12:05:12;4.82;;;2.65;;
38629;SDS011;24384;51.988;4.644;2024-01-07T12:07:40;4.95;;;2.78;;
38629;SDS011;24384;51.988;4.644;2024-01-07T12:10:09;4.00;;;2.53;;
38629;SDS011;24384;51.988;4.644;2024-01-07T12:12:41;3.80;;;2.30;;
38629;SDS011;24384;51.988;4.644;2024-01-07T12:15:07;4.20;;;2.42;;
38629;SDS011;24384;51.988;4.644;2024-01-07T12:17:33;4.88;;;2.53;;
38629;SDS011;24384;51.988;4.644;2024-01-07T12:19:59;5.78;;;2.50;;
38629;SDS011;24384;51.988;4.644;2024-01-07T12:22:27;4.28;;;2.60;;
38629;SDS011;24384;51.988;4.644;2024-01-07T12:25:02;3.22;;;2.10;;
38629;SDS011;24384;51.988;4.644;2024-01-07T12:27:28;4.65;;;2.60;;
38629;SDS011;24384;51.988;4.644;2024-01-07T12:29:54;3.65;;;2.45;;
38629;SDS011;24384;51.988;4.644;2024-01-07T12:32:21;3.67;;;2.50;;
38629;SDS011;24384;51.988;4.644;2024-01-07T12:34:47;4.70;;;2.97;;
38629;SDS011;24384;51.988;4.644;2024-01-07T12:37:13;3.38;;;2.33;;
38629;SDS011;24384;51.988;4.644;2024-01-07T12:39:39;4.43;;;2.75;;
38629;SDS011;24384;51.988;4.644;2024-01-07T12:42:04;3.70;;;2.53;;
38629;SDS011;24384;51.988;4.644;2024-01-07T12:44:31;3.15;;;2.10;;
38629;SDS011;24384;51.988;4.644;2024-01-07T12:46:57;4.32;;;2.70;;
38629;SDS011;24384;51.988;4.644;2024-01-07T12:49:22;4.35;;;2.75;;
38629;SDS011;24384;51.988;4.644;2024-01-07T12:51:47;5.68;;;3.47;;
38629;SDS011;24384;51.988;4.644;2024-01-07T12:54:13;5.47;;;3.22;;
38629;SDS011;24384;51.988;4.644;2024-01-07T12:56:38;4.65;;;2.63;;
38629;SDS011;24384;51.988;4.644;2024-01-07T12:59:03;4.82;;;2.75;;
38629;SDS011;24384;51.988;4.644;2024-01-07T13:01:29;4.80;;;2.10;;
38629;SDS011;24384;51.988;4.644;2024-01-07T13:03:55;3.30;;;2.17;;
38629;SDS011;24384;51.988;4.644;2024-01-07T13:06:21;3.42;;;2.25;;
38629;SDS011;24384;51.988;4.644;2024-01-07T13:08:46;3.10;;;2.00;;
38629;SDS011;24384;51.988;4.644;2024-01-07T13:11:12;2.92;;;1.77;;
38629;SDS011;24384;51.988;4.644;2024-01-07T13:13:39;3.80;;;2.30;;
38629;SDS011;24384;51.988;4.644;2024-01-07T13:16:04;8.02;;;2.30;;
38629;SDS011;24384;51.988;4.644;2024-01-07T13:18:30;4.45;;;1.88;;
38629;SDS011;24384;51.988;4.644;2024-01-07T13:20:55;5.10;;;1.67;;
38629;SDS011;24384;51.988;4.644;2024-01-07T13:23:20;4.47;;;2.47;;
38629;SDS011;24384;51.988;4.644;2024-01-07T13:25:46;7.65;;;2.38;;
38629;SDS011;24384;51.988;4.644;2024-01-07T13:28:11;3.72;;;2.10;;
38629;SDS011;24384;51.988;4.644;2024-01-07T13:30:37;2.78;;;1.80;;
38629;SDS011;24384;51.988;4.644;2024-01-07T13:33:03;4.82;;;2.00;;
38629;SDS011;24384;51.988;4.644;2024-01-07T13:35:29;5.63;;;2.28;;
38629;SDS011;24384;51.988;4.644;2024-01-07T13:37:55;4.28;;;1.92;;
38629;SDS011;24384;51.988;4.644;2024-01-07T13:40:20;4.32;;;1.70;;
38629;SDS011;24384;51.988;4.644;2024-01-07T13:42:45;6.30;;;2.00;;
38629;SDS011;24384;51.988;4.644;2024-01-07T13:45:14;6.22;;;2.00;;
38629;SDS011;24384;51.988;4.644;2024-01-07T13:47:39;2.88;;;1.85;;
38629;SDS011;24384;51.988;4.644;2024-01-07T13:50:05;3.50;;;1.63;;
38629;SDS011;24384;51.988;4.644;2024-01-07T13:52:31;4.82;;;1.80;;
38629;SDS011;24384;51.988;4.644;2024-01-07T13:54:56;3.22;;;1.73;;
38629;SDS011;24384;51.988;4.644;2024-01-07T13:57:22;4.03;;;1.77;;
38629;SDS011;24384;51.988;4.644;2024-01-07T13:59:47;3.97;;;1.70;;
38629;SDS011;24384;51.988;4.644;2024-01-07T14:02:14;2.22;;;1.63;;
38629;SDS011;24384;51.988;4.644;2024-01-07T14:04:44;1.83;;;1.23;;
38629;SDS011;24384;51.988;4.644;2024-01-07T14:07:09;3.05;;;1.63;;
38629;SDS011;24384;51.988;4.644;2024-01-07T14:09:35;3.47;;;2.28;;
38629;SDS011;24384;51.988;4.644;2024-01-07T14:12:00;2.42;;;1.40;;
38629;SDS011;24384;51.988;4.644;2024-01-07T14:14:28;3.22;;;1.65;;
38629;SDS011;24384;51.988;4.644;2024-01-07T14:16:54;2.17;;;1.73;;
38629;SDS011;24384;51.988;4.644;2024-01-07T14:19:20;2.28;;;1.35;;
38629;SDS011;24384;51.988;4.644;2024-01-07T14:21:48;7.63;;;2.00;;
38629;SDS011;24384;51.988;4.644;2024-01-07T14:24:13;2.45;;;1.75;;
38629;SDS011;24384;51.988;4.644;2024-01-07T14:26:38;4.85;;;1.30;;
38629;SDS011;24384;51.988;4.644;2024-01-07T14:29:04;3.45;;;1.92;;
38629;SDS011;24384;51.988;4.644;2024-01-07T14:31:29;1.95;;;1.27;;
38629;SDS011;24384;51.988;4.644;2024-01-07T14:33:55;3.75;;;2.33;;